Fairbank, Iowa
Current Conditions -  °F | °C
As of 12:35 PM on Thursday 29 Jan 2015 (Local Time) from KOLZ Reporting Station
Overcast Overcast  
Wind Chill: 19°   Ceiling: 1400
Heat Index: 32°   Visibility: 10mi
Dew Point: 28°   Wind: 24mph
Humidity: 87%   Direction: 320°NW
Pressure: 30.16"   Gusts: 31mph
Location:  42.64°N, 92.05°W
Report Text: KOLZ 291835Z AUTO 32021G27KT 10SM OVC014 00/M02 A3016 RMK AO2
Loading
Personal Weather Stations






























Interactive Weather Map New forecast layout! Learn more

10-Day Weather Forecast

Advertisements
Track Severe Weather on mobile